Time;durP1;ratioP1;P1;durP2;ratioP2;P2;SDS_P1;SDS_P2;PMS_P1;PMS_P2;Temp;Humidity;BMP_temperature;BMP_pressure;BME280_temperature;BME280_humidity;BME280_pressure;Samples;Min_cycle;Max_cycle;Signal;HPM_P1;HPM_P2
2023/08/31 00:13:48;;;;;;;13.93;5.07;;;;;;;23.69;34.21;99759.19;31394675;28;20064;-83
2023/08/31 00:28:50;;;;;;;8.45;4.85;;;;;;;23.71;34.33;99748.31;31401694;28;20064;-83
2023/08/31 00:43:52;;;;;;;10.00;4.57;;;;;;;23.64;34.50;99737.81;31374960;28;20529;-83
2023/08/31 00:58:54;;;;;;;14.35;4.32;;;;;;;23.58;34.80;99756.50;31389208;28;20052;-83
2023/08/31 01:14:03;;;;;;;14.13;4.78;;;;;;;23.40;35.20;99755.84;31390919;28;20144;-83
2023/08/31 01:29:06;;;;;;;10.43;4.82;;;;;;;23.41;35.56;99739.97;31369026;28;20056;-82
2023/08/31 01:44:12;;;;;;;20.50;7.38;;;;;;;23.37;35.99;99743.06;31373231;28;20730;-82
2023/08/31 01:59:14;;;;;;;16.52;6.10;;;;;;;23.37;35.57;99745.06;31379232;28;20053;-81
2023/08/31 02:14:16;;;;;;;10.75;4.63;;;;;;;23.34;36.02;99757.94;31364186;28;20052;-83
2023/08/31 02:29:18;;;;;;;11.45;3.92;;;;;;;23.53;35.94;99762.84;31386298;28;20049;-82
2023/08/31 02:44:20;;;;;;;14.10;3.63;;;;;;;23.58;36.50;99764.81;31384123;28;20143;-82
2023/08/31 02:59:24;;;;;;;9.43;3.40;;;;;;;23.72;36.97;99791.41;31372578;28;20040;-82
2023/08/31 03:14:26;;;;;;;15.63;7.70;;;;;;;23.83;37.47;99785.78;31379733;28;20075;-82
2023/08/31 03:29:28;;;;;;;16.92;4.38;;;;;;;23.88;38.04;99793.25;31369911;28;20041;-81
2023/08/31 03:44:30;;;;;;;16.40;5.07;;;;;;;23.97;39.16;99811.59;31366129;28;20089;-82
2023/08/31 03:59:33;;;;;;;12.45;4.93;;;;;;;24.09;39.76;99808.19;31443514;28;20056;-82
2023/08/31 04:14:35;;;;;;;11.80;4.65;;;;;;;24.46;39.87;99817.94;31397310;28;20060;-82
2023/08/31 04:29:37;;;;;;;15.38;4.40;;;;;;;25.06;40.25;99806.63;31389907;28;20041;-82
2023/08/31 04:44:39;;;;;;;6.88;3.60;;;;;;;25.70;40.77;99801.19;31388735;28;20057;-82
2023/08/31 04:59:41;;;;;;;13.23;4.35;;;;;;;25.96;41.21;99812.38;31418305;28;20047;-84
2023/08/31 05:14:43;;;;;;;10.77;4.93;;;;;;;26.74;39.53;99805.34;31380100;28;20143;-82
2023/08/31 05:29:49;;;;;;;12.25;4.57;;;;;;;27.09;39.40;99812.47;31385677;28;20113;-81
2023/08/31 05:44:51;;;;;;;13.60;4.13;;;;;;;27.41;38.79;99815.03;31400129;28;20083;-79
2023/08/31 05:59:53;;;;;;;6.50;3.67;;;;;;;28.43;37.30;99820.38;31406874;28;20045;-83
2023/08/31 06:14:55;;;;;;;7.30;3.80;;;;;;;28.68;37.13;99834.66;31405511;28;20413;-81
2023/08/31 06:29:57;;;;;;;8.80;4.30;;;;;;;29.88;37.31;99837.66;31388114;28;20045;-80
2023/08/31 06:44:59;;;;;;;;;;;;;;;29.66;36.75;99860.78;31331111;28;20140;-76
2023/08/31 07:00:03;;;;;;;14.50;6.20;;;;;;;30.56;37.20;99853.69;31336645;28;20198;-79
2023/08/31 07:15:06;;;;;;;11.73;5.43;;;;;;;31.12;36.98;99866.44;31343386;28;20584;-79
2023/08/31 07:30:08;;;;;;;14.40;6.35;;;;;;;32.71;36.19;99874.22;31342671;28;20041;-83
2023/08/31 07:45:13;;;;;;;9.38;6.28;;;;;;;34.12;35.95;99856.56;31366726;28;20053;-76
2023/08/31 08:00:15;;;;;;;12.68;5.97;;;;;;;34.73;35.64;99858.28;31347558;28;20052;-80
2023/08/31 08:15:18;;;;;;;16.67;6.78;;;;;;;35.86;33.99;99833.84;31323899;28;20057;-81
2023/08/31 08:31:11;;;;;;;14.02;6.15;;;;;;;37.32;33.89;99834.19;31341630;28;20049;-85
2023/08/31 08:46:15;;;;;;;10.60;5.75;;;;;;;36.93;33.07;99840.22;31385242;28;20061;-83
2023/08/31 09:01:22;;;;;;;13.48;6.25;;;;;;;36.91;32.62;99837.25;31345516;28;20136;-80
2023/08/31 09:16:31;;;;;;;17.23;7.32;;;;;;;37.34;31.06;99837.88;31358737;28;20103;-81
2023/08/31 09:31:36;;;;;;;16.75;8.35;;;;;;;37.67;29.94;99837.81;31352441;28;20055;-90
2023/08/31 09:46:40;;;;;;;18.83;10.45;;;;;;;38.34;29.94;99826.88;31346634;28;20062;-81
2023/08/31 10:01:47;;;;;;;26.83;13.15;;;;;;;39.27;29.09;99822.88;31402916;28;20047;-82
2023/08/31 10:16:52;;;;;;;23.13;15.32;;;;;;;39.32;29.74;99802.59;31376796;28;20044;-84
2023/08/31 10:31:54;;;;;;;27.48;15.63;;;;;;;38.83;29.57;99799.94;31374962;28;20056;-76
2023/08/31 10:47:03;;;;;;;42.17;16.10;;;;;;;38.77;31.20;99781.84;31352656;28;20057;-82
2023/08/31 11:02:06;;;;;;;18.45;10.40;;;;;;;39.26;30.69;99776.72;31348891;28;20041;-80
2023/08/31 11:17:10;;;;;;;18.98;8.60;;;;;;;40.10;30.50;99761.91;31336530;28;20409;-79
2023/08/31 11:32:12;;;;;;;10.93;7.10;;;;;;;40.69;30.47;99744.84;31357076;28;20079;-84
2023/08/31 11:47:15;;;;;;;8.38;6.25;;;;;;;39.24;32.25;99728.34;31405743;28;20049;-75
2023/08/31 12:02:19;;;;;;;9.45;5.25;;;;;;;37.73;33.52;99735.50;31353777;28;20462;-81
2023/08/31 12:17:21;;;;;;;10.27;4.55;;;;;;;37.26;33.96;99729.84;31381606;28;20143;-80
2023/08/31 12:32:23;;;;;;;11.30;4.93;;;;;;;36.83;35.03;99724.38;31374878;28;20383;-80
2023/08/31 12:47:25;;;;;;;8.13;4.95;;;;;;;36.51;36.24;99723.03;31392797;28;20059;-78
2023/08/31 13:02:27;;;;;;;11.05;4.97;;;;;;;36.23;36.98;99716.28;31398397;28;20516;-81
2023/08/31 13:17:30;;;;;;;14.93;4.82;;;;;;;36.27;37.38;99707.34;31379459;28;20513;-80
2023/08/31 13:32:33;;;;;;;8.52;4.50;;;;;;;36.21;36.77;99707.66;31370757;28;20055;-77
2023/08/31 13:47:35;;;;;;;7.95;4.90;;;;;;;36.35;37.02;99726.94;31384579;28;20067;-79
2023/08/31 14:02:38;;;;;;;9.05;4.88;;;;;;;36.41;37.00;99713.16;31376176;28;20045;-79
2023/08/31 14:17:41;;;;;;;20.23;5.13;;;;;;;36.10;37.53;99719.66;31358916;28;20071;-79
2023/08/31 14:32:43;;;;;;;8.63;4.63;;;;;;;35.98;37.52;99718.13;31382413;28;20049;-82
2023/08/31 14:47:45;;;;;;;14.07;5.28;;;;;;;35.90;38.17;99706.31;31389273;28;20060;-81
2023/08/31 15:02:48;;;;;;;7.78;4.60;;;;;;;35.80;38.84;99709.19;31371952;28;20510;-82
2023/08/31 15:17:50;;;;;;;13.90;5.20;;;;;;;35.50;39.46;99705.78;31355569;28;20045;-82
2023/08/31 15:32:53;;;;;;;8.73;5.80;;;;;;;34.98;42.18;99719.06;31409037;28;20283;-82
2023/08/31 15:47:55;;;;;;;12.75;6.15;;;;;;;34.66;43.07;99712.63;31435386;28;20052;-83
2023/08/31 16:02:58;;;;;;;10.10;6.47;;;;;;;34.36;44.10;99713.25;31459024;28;20132;-85
2023/08/31 16:18:03;;;;;;;9.05;5.18;;;;;;;34.00;45.13;99706.41;31491360;28;20053;-85
2023/08/31 16:33:07;;;;;;;9.98;5.65;;;;;;;33.50;46.50;99715.34;31441096;28;20394;-91
2023/08/31 16:48:10;;;;;;;11.02;5.28;;;;;;;33.10;47.25;99724.19;31399436;28;20060;-78
2023/08/31 17:03:17;;;;;;;8.30;5.38;;;;;;;32.76;50.06;99739.13;31424571;28;20041;-85
2023/08/31 17:18:46;;;;;;;8.30;5.72;;;;;;;32.51;51.83;99769.38;31455768;28;20080;-88
2023/08/31 17:33:52;;;;;;;9.97;5.33;;;;;;;32.26;53.36;99771.53;31409529;28;20144;-79
2023/08/31 17:48:54;;;;;;;7.72;6.07;;;;;;;31.87;55.13;99762.72;31344700;28;1560259;-79
2023/08/31 18:03:56;;;;;;;9.55;6.00;;;;;;;31.72;55.96;99771.25;31391589;28;20083;-81
2023/08/31 18:18:58;;;;;;;9.63;6.28;;;;;;;31.46;56.92;99790.13;31400204;28;20052;-81
2023/08/31 18:34:03;;;;;;;14.82;7.15;;;;;;;31.22;57.96;99798.53;31389987;28;20071;-78
2023/08/31 18:49:05;;;;;;;12.30;6.97;;;;;;;30.94;59.10;99796.78;31385703;28;20126;-77
2023/08/31 19:04:09;;;;;;;14.02;6.95;;;;;;;30.66;60.20;99806.25;31350754;28;20148;-80
2023/08/31 19:19:15;;;;;;;14.27;8.18;;;;;;;30.52;61.15;99809.22;31405191;28;20049;-80
2023/08/31 19:34:17;;;;;;;18.45;7.32;;;;;;;30.22;63.27;99822.56;31417221;28;20047;-82
2023/08/31 19:49:23;;;;;;;12.48;7.53;;;;;;;29.73;68.32;99826.47;31420526;28;20132;-81
2023/08/31 20:04:25;;;;;;;14.38;8.38;;;;;;;29.45;72.79;99824.56;31411094;28;20399;-80
2023/08/31 20:19:27;;;;;;;;;;;;;;;29.35;77.04;99821.53;31413907;28;20077;-81
2023/08/31 20:34:29;;;;;;;12.77;8.07;;;;;;;29.22;77.17;99824.50;31441969;28;19920;-81
2023/08/31 20:49:31;;;;;;;;;;;;;;;29.01;83.54;99812.69;31428281;28;20430;-79
2023/08/31 21:04:33;;;;;;;17.52;10.02;;;;;;;28.86;83.31;99804.97;31397971;28;20015;-81
2023/08/31 21:19:35;;;;;;;24.50;14.03;;;;;;;28.49;86.59;99812.63;31422912;28;20049;-82
2023/08/31 21:34:38;;;;;;;21.33;15.37;;;;;;;28.13;91.48;99809.72;31417901;28;20040;-81
2023/08/31 21:49:40;;;;;;;22.00;14.68;;;;;;;27.95;93.06;99813.50;31413415;28;20297;-80
2023/08/31 22:04:43;;;;;;;23.20;15.53;;;;;;;27.80;94.31;99816.19;31403442;28;20056;-81
2023/08/31 22:19:45;;;;;;;24.73;15.90;;;;;;;27.58;97.22;99817.47;31367670;28;20064;-80
2023/08/31 22:34:47;;;;;;;33.67;20.03;;;;;;;27.40;99.32;99807.97;31349282;28;20520;-81
2023/08/31 22:49:52;;;;;;;33.37;20.63;;;;;;;27.26;99.66;99817.69;31340572;28;20061;-80
2023/08/31 23:04:54;;;;;;;38.17;19.52;;;;;;;27.20;99.04;99816.28;31386102;28;20045;-82
2023/08/31 23:19:56;;;;;;;31.87;20.87;;;;;;;27.05;100.00;99805.75;31370104;28;20087;-81
2023/08/31 23:34:58;;;;;;;32.30;19.97;;;;;;;27.00;100.00;99798.25;31341040;28;20068;-81
2023/08/31 23:50:00;;;;;;;30.13;20.43;;;;;;;26.99;99.77;99780.78;31365968;28;20623;-80
